Aérodrome :
LOGIN :

S'inscrire | Disclaimer

   EN    FR    IT 

 










Légende :    VFR   VFR Marginal   IFR   IFR Intensif   IFR Très Intensif
Visi : 
Plafond : 
>= 8 km
>= 3000ft
5 à 8 km
1000 à 3000 ft
1500m à 5 km
500 à 1000 ft
800 à 1500m
200 à 500 ft
< 800m
< 200 ft
Symboles :   Orages  Brouillard  Fortes neiges  Fortes précipitations  Vent > 20 kt
SIGMETs :   Divers  Orages  Givrage  Turbulence  Onde Orograph.  Cendres Volcan.






- Altitude de l'aérodrome : 63 ft
- Code IATA : BZM


EHWO - Woensdrecht Airbase

DERNIER METAR :
  • 180555Z AUTO 29003KT 230V300 9999 SCT027 BKN030 BKN034 04/03 Q1009 BLU

METARs EXPIRÉS :
  • 180525Z AUTO 28005KT 9999 FEW045 OVC076 04/03 Q1008 BLU
  • 180455Z AUTO 30004KT 250V320 9999 OVC073 04/03 Q1008 BLU
  • 180435Z AUTO 29003KT 9999 FEW034 OVC073 04/03 Q1009 BLU
  • 180425Z AUTO 30003KT 260V320 8000 BR FEW036 OVC075 04/03 Q1008 REDZ BLU
  • 180401Z AUTO 31003KT 8000 DZRA FEW052 SCT058 BKN064 04/03 Q1009 BLU
  • 180355Z AUTO 31003KT 8000 -RA FEW049 BKN055 OVC061 04/03 Q1009 RERA REDZ BLU
  • 180335Z AUTO 33002KT 9000 -RA FEW039 BKN048 OVC054 03/03 Q1009 BLU
  • 180326Z AUTO 35002KT 9999 DZRA SCT046 OVC051 03/03 Q1009 BLU
  • 180325Z AUTO 34002KT 9999 DZ SCT049 BKN054 OVC060 03/03 Q1009 BLU

TAF TAF EHWO
Valide du 18 à 06h jusqu'au 18 à 18h UTC


180558Z 1806/1818 29003KT 9999 FEW030 SCT040
PROB30
TEMPO 1810/1818 4500 RADZ SCT009 BKN012 OVC020
TEMPO 1814/1818 32012KT 3500 SHRA RA SCT008 SCT012CB BKN020



MET'MAP, la Météo Aéronautique d'un coup d'oeil ! - Copyright ORBIFLY Décembre 2007 - Disclaimer

ORBIFLY MET'MAP TEAM :

Programmation & Développement : Alexandra Zaïnal
Conception & Développement : Baudouin d'Aumeries
Co-Programmation & Développement : Marc-Olivier Méhu
Soutien technique & logistique : Manuel Goepfert

Contact : metmap@orbifly.com




SOURCES & CREDITS :

   NOAA